createdAt,value
2018-05-08T00:02:14.320Z,3.60
2018-05-08T00:04:42.675Z,3.20
2018-05-08T00:07:10.233Z,3.20
2018-05-08T00:09:37.833Z,2.90
2018-05-08T00:12:06.154Z,3.30
2018-05-08T00:14:33.812Z,3.33
2018-05-08T00:17:01.369Z,3.67
2018-05-08T00:19:28.965Z,2.83
2018-05-08T00:21:56.525Z,3.00
2018-05-08T00:24:24.060Z,3.07
2018-05-08T00:26:51.695Z,2.80
2018-05-08T00:29:19.284Z,2.97
2018-05-08T00:31:46.841Z,3.23
2018-05-08T00:34:15.153Z,3.17
2018-05-08T00:36:42.719Z,3.23
2018-05-08T00:39:12.036Z,2.77
2018-05-08T00:41:39.642Z,3.17
2018-05-08T00:44:07.245Z,3.37
2018-05-08T00:46:34.818Z,2.60
2018-05-08T00:49:02.396Z,2.33
2018-05-08T00:51:29.977Z,3.07
2018-05-08T00:53:57.572Z,3.10
2018-05-08T00:56:25.113Z,3.10
2018-05-08T00:58:53.471Z,3.30
2018-05-08T01:01:21.095Z,2.83
2018-05-08T01:03:48.668Z,3.00
2018-05-08T01:06:16.251Z,3.33
2018-05-08T01:08:43.823Z,3.17
2018-05-08T01:11:11.368Z,2.70
2018-05-08T01:13:38.998Z,2.90
2018-05-08T01:16:06.560Z,2.77
2018-05-08T01:18:34.925Z,3.00
2018-05-08T01:21:03.314Z,3.10
2018-05-08T01:23:31.652Z,3.10
2018-05-08T01:25:59.180Z,3.10
2018-05-08T01:28:26.709Z,2.87
2018-05-08T01:30:54.355Z,3.13
2018-05-08T01:33:22.720Z,2.60
2018-05-08T01:35:50.269Z,2.63
2018-05-08T01:38:17.824Z,3.33
2018-05-08T01:40:45.349Z,2.97
2018-05-08T01:43:12.938Z,2.70
2018-05-08T01:45:40.557Z,2.80
2018-05-08T01:48:08.113Z,2.57
2018-05-08T01:50:36.442Z,2.70
2018-05-08T01:53:03.993Z,3.20
2018-05-08T01:55:33.251Z,2.40
2018-05-08T01:58:01.649Z,2.77
2018-05-08T02:00:29.255Z,3.10
2018-05-08T02:02:57.633Z,3.63
2018-05-08T02:05:25.223Z,3.20
2018-05-08T02:07:53.550Z,3.30
2018-05-08T02:10:21.103Z,3.40
2018-05-08T02:12:48.679Z,3.67
2018-05-08T02:15:16.237Z,4.00
2018-05-08T02:17:43.805Z,3.27
2018-05-08T02:20:11.365Z,3.47
2018-05-08T02:22:38.886Z,3.97
2018-05-08T02:25:06.523Z,4.20
2018-05-08T02:27:34.479Z,3.67
2018-05-08T02:30:02.018Z,3.70
2018-05-08T02:32:29.540Z,4.30
2018-05-08T02:34:57.529Z,3.57
2018-05-08T02:37:25.103Z,3.77
2018-05-08T02:39:52.719Z,3.57
2018-05-08T02:42:20.290Z,3.10
2018-05-08T02:44:47.884Z,3.63
2018-05-08T02:47:15.440Z,3.57
2018-05-08T02:49:43.052Z,4.00
2018-05-08T02:52:10.611Z,4.10
2018-05-08T02:54:38.158Z,3.40
2018-05-08T02:57:05.746Z,4.07
2018-05-08T02:59:33.279Z,3.83
2018-05-08T03:02:01.650Z,3.63
2018-05-08T03:04:29.970Z,3.60
2018-05-08T03:06:57.508Z,4.40
2018-05-08T03:09:25.073Z,3.90
2018-05-08T03:11:52.692Z,3.70
2018-05-08T03:14:20.280Z,3.60
2018-05-08T03:16:47.816Z,3.70
2018-05-08T03:19:15.413Z,3.70
2018-05-08T03:21:43.788Z,4.20
2018-05-08T03:24:11.400Z,3.20
2018-05-08T03:26:38.950Z,3.93
2018-05-08T03:29:07.276Z,3.40
2018-05-08T03:31:34.835Z,2.80
2018-05-08T03:34:03.131Z,3.27
2018-05-08T03:36:30.692Z,3.63
2018-05-08T03:38:58.270Z,3.40
2018-05-08T03:41:25.864Z,3.13
2018-05-08T03:43:53.407Z,3.10
2018-05-08T03:46:20.981Z,3.00
2018-05-08T03:48:48.995Z,2.60
2018-05-08T03:51:16.577Z,3.63
2018-05-08T03:53:44.537Z,3.40
2018-05-08T03:56:12.130Z,3.47
2018-05-08T03:58:39.751Z,3.87
2018-05-08T04:01:18.969Z,2.93
2018-05-08T04:03:58.343Z,3.27
2018-05-08T04:09:37.734Z,3.20
2018-05-08T04:12:05.291Z,3.20
2018-05-08T04:14:32.824Z,3.13
2018-05-08T04:17:00.417Z,4.10
2018-05-08T04:19:27.966Z,4.60
2018-05-08T04:21:55.520Z,3.93
2018-05-08T04:24:23.081Z,3.43
2018-05-08T04:26:50.621Z,3.10
2018-05-08T04:29:18.201Z,3.50
2018-05-08T04:31:45.772Z,3.80
2018-05-08T04:34:13.550Z,3.27
2018-05-08T04:36:41.134Z,3.03
2018-05-08T04:39:09.080Z,3.50
2018-05-08T04:41:36.755Z,2.93
2018-05-08T04:44:05.058Z,3.47
2018-05-08T04:46:32.680Z,3.73
2018-05-08T04:49:00.213Z,4.17
2018-05-08T04:51:27.820Z,3.20
2018-05-08T04:53:56.245Z,3.97
2018-05-08T04:56:23.796Z,3.67
2018-05-08T04:58:51.360Z,3.17
2018-05-08T05:01:18.923Z,3.23
2018-05-08T05:03:46.611Z,2.90
2018-05-08T05:06:14.455Z,2.80
2018-05-08T05:08:42.048Z,2.87
2018-05-08T05:11:09.729Z,2.93
2018-05-08T05:13:37.223Z,2.70
2018-05-08T05:16:04.792Z,2.50
2018-05-08T05:18:32.328Z,2.87
2018-05-08T05:20:59.893Z,2.90
2018-05-08T05:23:27.433Z,2.30
2018-05-08T05:25:55.067Z,2.67
2018-05-08T05:28:22.721Z,2.40
2018-05-08T05:30:50.307Z,2.30
2018-05-08T05:33:18.529Z,2.60
2018-05-08T05:35:46.065Z,2.63
2018-05-08T05:38:13.641Z,2.80
2018-05-08T05:40:41.241Z,2.20
2018-05-08T05:43:09.118Z,2.13
2018-05-08T05:45:36.714Z,2.47
2018-05-08T05:48:04.312Z,2.50
2018-05-08T05:50:31.957Z,2.40
2018-05-08T05:52:59.525Z,2.20
2018-05-08T05:55:27.103Z,2.30
2018-05-08T05:57:54.667Z,2.30
2018-05-08T06:00:22.996Z,2.00
2018-05-08T06:02:50.608Z,2.17
2018-05-08T06:05:19.097Z,2.10
2018-05-08T06:07:46.714Z,1.90
2018-05-08T06:10:14.383Z,2.17
2018-05-08T06:12:41.995Z,2.43
2018-05-08T06:15:09.569Z,2.53
2018-05-08T06:17:37.157Z,2.30
2018-05-08T06:20:04.784Z,2.03
2018-05-08T06:22:32.334Z,2.03
2018-05-08T06:25:00.941Z,2.43
2018-05-08T06:27:28.485Z,2.07
2018-05-08T06:29:56.793Z,2.50
2018-05-08T06:32:24.374Z,2.13
2018-05-08T06:34:52.010Z,2.10
2018-05-08T06:37:19.548Z,1.60
2018-05-08T06:39:47.232Z,2.03
2018-05-08T06:42:14.850Z,1.67
2018-05-08T06:44:42.483Z,2.07
2018-05-08T06:47:10.090Z,1.93
2018-05-08T06:49:37.721Z,1.80
2018-05-08T06:52:05.355Z,2.10
2018-05-08T06:54:32.888Z,2.00
2018-05-08T06:57:00.451Z,2.00
2018-05-08T06:59:28.011Z,2.00
2018-05-08T07:01:55.612Z,1.83
2018-05-08T07:04:23.507Z,1.80
2018-05-08T07:06:51.093Z,1.80
2018-05-08T07:09:18.968Z,2.00
2018-05-08T07:11:46.511Z,1.90
2018-05-08T07:14:14.109Z,1.87
2018-05-08T07:16:41.739Z,2.27
2018-05-08T07:19:09.299Z,1.97
2018-05-08T07:21:36.912Z,2.10
2018-05-08T07:24:04.550Z,1.90
2018-05-08T07:26:32.058Z,2.27
2018-05-08T07:29:00.401Z,2.07
2018-05-08T07:31:28.065Z,1.73
2018-05-08T07:33:55.660Z,1.80
2018-05-08T07:36:24.012Z,1.70
2018-05-08T07:38:51.754Z,2.00
2018-05-08T07:41:19.331Z,1.60
2018-05-08T07:43:46.940Z,2.10
2018-05-08T07:46:15.334Z,2.10
2018-05-08T07:48:43.289Z,2.43
2018-05-08T07:51:10.899Z,2.37
2018-05-08T07:53:38.492Z,1.73
2018-05-08T07:56:07.022Z,1.90
2018-05-08T07:58:34.624Z,2.80
2018-05-08T08:01:02.222Z,2.47
2018-05-08T08:03:29.903Z,2.27
2018-05-08T08:05:57.487Z,2.23
2018-05-08T08:08:25.096Z,1.70
2018-05-08T08:10:52.732Z,1.90
2018-05-08T08:13:20.308Z,1.70
2018-05-08T08:15:47.921Z,1.70
2018-05-08T08:18:15.528Z,1.80
2018-05-08T08:20:43.404Z,1.70
2018-05-08T08:23:11.009Z,1.70
2018-05-08T08:25:38.584Z,1.77
2018-05-08T08:28:06.135Z,1.63
2018-05-08T08:30:33.912Z,2.53
2018-05-08T08:33:01.508Z,1.67
2018-05-08T08:35:30.072Z,1.87
2018-05-08T08:37:57.652Z,1.93
2018-05-08T08:40:26.158Z,1.90
2018-05-08T08:42:54.758Z,1.70
2018-05-08T08:45:22.382Z,1.80
2018-05-08T08:47:50.756Z,1.40
2018-05-08T08:50:18.284Z,1.80
2018-05-08T08:52:45.920Z,2.23
2018-05-08T08:55:13.498Z,2.10
2018-05-08T08:57:41.164Z,1.70
2018-05-08T09:00:08.935Z,1.50
2018-05-08T09:02:36.495Z,1.77
2018-05-08T09:05:04.056Z,1.63
2018-05-08T09:07:31.650Z,1.83
2018-05-08T09:09:59.943Z,1.60
2018-05-08T09:12:27.703Z,1.77
2018-05-08T09:14:55.498Z,1.60
2018-05-08T09:17:23.208Z,1.50
2018-05-08T09:19:51.196Z,1.50
2018-05-08T09:22:18.826Z,1.80
2018-05-08T09:24:46.417Z,1.60
2018-05-08T09:27:14.009Z,1.50
2018-05-08T09:29:41.594Z,1.80
2018-05-08T09:32:09.168Z,2.13
2018-05-08T09:34:37.396Z,1.70
2018-05-08T09:37:04.996Z,1.70
2018-05-08T09:39:32.652Z,2.10
2018-05-08T09:42:00.261Z,2.43
2018-05-08T09:44:27.877Z,1.73
2018-05-08T09:46:55.615Z,2.20
2018-05-08T09:49:23.200Z,1.90
2018-05-08T09:51:50.790Z,1.70
2018-05-08T09:54:19.188Z,1.40
2018-05-08T09:56:46.752Z,1.80
2018-05-08T09:59:14.310Z,1.87
2018-05-08T10:01:42.163Z,1.70
2018-05-08T10:04:10.618Z,1.87
2018-05-08T10:06:38.332Z,1.70
2018-05-08T10:09:06.008Z,1.40
2018-05-08T10:11:33.561Z,1.77
2018-05-08T10:14:01.249Z,1.53
2018-05-08T10:16:28.903Z,1.63
2018-05-08T10:18:56.885Z,1.50
2018-05-08T10:21:29.431Z,1.40
2018-05-08T10:23:56.998Z,1.53
2018-05-08T10:26:24.613Z,1.83
2018-05-08T10:28:52.267Z,1.67
2018-05-08T10:31:19.816Z,1.50
2018-05-08T10:33:47.561Z,1.43
2018-05-08T10:36:15.084Z,1.80
2018-05-08T10:38:43.070Z,1.70
2018-05-08T10:41:10.719Z,1.40
2018-05-08T10:43:38.291Z,1.77
2018-05-08T10:46:05.882Z,1.50
2018-05-08T10:48:33.454Z,1.50
2018-05-08T10:51:01.179Z,2.07
2018-05-08T10:53:28.792Z,1.93
2018-05-08T10:55:56.342Z,1.67
2018-05-08T10:58:23.924Z,1.80
2018-05-08T11:00:51.731Z,2.07
2018-05-08T11:03:19.401Z,1.53
2018-05-08T11:05:47.158Z,1.97
2018-05-08T11:08:14.824Z,1.83
2018-05-08T11:10:42.583Z,1.80
2018-05-08T11:13:10.205Z,2.00
2018-05-08T11:15:37.788Z,1.77
2018-05-08T11:18:05.466Z,1.33
2018-05-08T11:20:33.057Z,1.57
2018-05-08T11:23:00.596Z,1.57
2018-05-08T11:25:28.500Z,1.60
2018-05-08T11:27:57.034Z,1.30
2018-05-08T11:30:24.695Z,1.63
2018-05-08T11:32:52.564Z,2.00
2018-05-08T11:35:20.147Z,1.90
2018-05-08T11:37:47.883Z,1.60
2018-05-08T11:40:15.479Z,2.37
2018-05-08T11:42:43.143Z,1.70
2018-05-08T11:45:10.789Z,1.73
2018-05-08T11:47:38.350Z,2.00
2018-05-08T11:50:05.980Z,1.93
2018-05-08T11:52:33.661Z,1.93
2018-05-08T11:55:01.286Z,1.40
2018-05-08T11:57:29.320Z,1.60
2018-05-08T11:59:56.955Z,1.90
2018-05-08T12:02:24.650Z,1.93
2018-05-08T12:04:52.329Z,1.57
2018-05-08T12:07:20.327Z,1.93
2018-05-08T12:09:47.934Z,1.60
2018-05-08T12:12:15.535Z,1.70
2018-05-08T12:14:43.245Z,1.70
2018-05-08T12:17:10.819Z,2.07
2018-05-08T12:19:38.598Z,2.03
2018-05-08T12:22:06.220Z,1.30
2018-05-08T12:24:33.797Z,1.80
2018-05-08T12:27:01.616Z,1.80
2018-05-08T12:29:29.171Z,1.53
2018-05-08T12:31:56.896Z,1.93
2018-05-08T12:34:24.700Z,1.53
2018-05-08T12:36:52.516Z,1.60
2018-05-08T12:39:20.084Z,1.63
2018-05-08T12:41:47.687Z,1.77
2018-05-08T12:44:15.293Z,1.40
2018-05-08T12:46:42.869Z,1.70
2018-05-08T12:49:10.407Z,1.60
2018-05-08T12:51:38.237Z,1.70
2018-05-08T12:54:05.839Z,1.90
2018-05-08T12:56:33.431Z,1.63
2018-05-08T12:59:01.813Z,1.80
2018-05-08T13:01:29.403Z,1.50
2018-05-08T13:03:57.023Z,2.10
2018-05-08T13:06:24.584Z,1.83
2018-05-08T13:08:52.185Z,1.43
2018-05-08T13:11:19.746Z,1.50
2018-05-08T13:13:52.383Z,1.67
2018-05-08T13:16:20.128Z,1.57
2018-05-08T13:18:47.714Z,1.60
2018-05-08T13:21:15.263Z,1.50
2018-05-08T13:23:43.263Z,1.70
2018-05-08T13:26:11.112Z,1.57
2018-05-08T13:28:38.723Z,1.40
2018-05-08T13:31:06.321Z,1.70
2018-05-08T13:33:33.867Z,1.40
2018-05-08T13:36:01.462Z,1.40
2018-05-08T13:38:29.478Z,1.63
2018-05-08T13:40:57.175Z,1.50
2018-05-08T13:43:24.957Z,1.67
2018-05-08T13:45:53.367Z,1.47
2018-05-08T13:48:20.990Z,1.57
2018-05-08T13:50:48.593Z,1.77
2018-05-08T13:53:16.215Z,1.70
2018-05-08T13:55:43.867Z,1.50
2018-05-08T13:58:11.476Z,1.50
2018-05-08T14:00:39.078Z,1.60
2018-05-08T14:03:06.694Z,1.80
2018-05-08T14:05:34.297Z,1.50
2018-05-08T14:08:01.885Z,1.70
2018-05-08T14:10:30.345Z,1.70
2018-05-08T14:12:58.237Z,1.50
2018-05-08T14:15:25.736Z,1.60
2018-05-08T14:17:53.376Z,1.73
2018-05-08T14:20:21.052Z,1.80
2018-05-08T14:22:48.932Z,1.60
2018-05-08T14:25:16.513Z,1.70
2018-05-08T14:27:44.267Z,1.70
2018-05-08T14:30:11.809Z,2.10
2018-05-08T14:32:39.616Z,1.47
2018-05-08T14:35:07.215Z,1.60
2018-05-08T14:37:35.873Z,1.57
2018-05-08T14:40:03.521Z,1.80
2018-05-08T14:42:31.148Z,1.67
2018-05-08T14:44:58.745Z,1.70
2018-05-08T14:47:26.354Z,1.50
2018-05-08T14:49:54.090Z,1.40
2018-05-08T14:52:21.700Z,1.40
2018-05-08T14:54:49.342Z,1.80
2018-05-08T14:57:17.170Z,1.37
2018-05-08T14:59:44.788Z,1.77
2018-05-08T15:02:12.422Z,1.53
2018-05-08T15:04:40.026Z,1.87
2018-05-08T15:07:07.640Z,1.93
2018-05-08T15:09:35.210Z,1.60
2018-05-08T15:12:02.849Z,1.83
2018-05-08T15:14:30.416Z,1.77
2018-05-08T15:16:58.051Z,1.70
2018-05-08T15:19:25.690Z,1.70
2018-05-08T15:21:53.356Z,2.10
2018-05-08T15:24:20.852Z,1.80
2018-05-08T15:26:49.253Z,1.67
2018-05-08T15:29:16.817Z,1.60
2018-05-08T15:31:44.387Z,2.00
2018-05-08T15:34:11.956Z,1.57
2018-05-08T15:36:39.546Z,1.80
2018-05-08T15:39:07.706Z,2.33
2018-05-08T15:41:35.368Z,1.83
2018-05-08T15:44:03.080Z,1.80
2018-05-08T15:46:31.457Z,1.80
2018-05-08T15:48:59.836Z,1.77
2018-05-08T15:51:28.256Z,2.17
2018-05-08T15:53:55.832Z,2.10
2018-05-08T15:56:23.550Z,1.97
2018-05-08T15:58:50.989Z,2.20
2018-05-08T16:01:18.667Z,2.53
2018-05-08T16:03:47.010Z,1.80
2018-05-08T16:06:14.592Z,2.20
2018-05-08T16:08:42.164Z,1.87
2018-05-08T16:11:10.453Z,2.07
2018-05-08T16:13:38.026Z,2.03
2018-05-08T16:16:05.631Z,2.10
2018-05-08T16:18:33.174Z,2.13
2018-05-08T16:21:00.794Z,1.57
2018-05-08T16:23:28.400Z,1.67
2018-05-08T16:25:55.955Z,2.10
2018-05-08T16:28:23.489Z,2.10
2018-05-08T16:30:51.116Z,1.73
2018-05-08T16:33:19.425Z,1.50
2018-05-08T16:35:47.024Z,1.93
2018-05-08T16:38:14.597Z,1.73
2018-05-08T16:40:42.144Z,2.03
2018-05-08T16:43:09.740Z,2.63
2018-05-08T16:45:37.282Z,2.13
2018-05-08T16:48:05.735Z,1.30
2018-05-08T16:50:33.382Z,2.17
2018-05-08T18:14:58.040Z,1.60
2018-05-08T18:17:25.649Z,1.80
2018-05-08T18:19:54.039Z,1.70
2018-05-08T18:22:21.622Z,1.63
2018-05-08T18:24:49.175Z,2.33
2018-05-08T18:27:16.774Z,1.50
2018-05-08T18:29:44.329Z,1.97
2018-05-08T18:32:11.917Z,1.80
2018-05-08T18:34:39.542Z,1.70
2018-05-08T18:37:07.100Z,1.87
2018-05-08T18:39:34.746Z,1.80
2018-05-08T18:42:02.587Z,2.10
2018-05-08T18:44:30.154Z,2.30
2018-05-08T18:46:57.756Z,2.00
2018-05-08T18:49:25.372Z,2.47
2018-05-08T18:51:53.142Z,2.20
2018-05-08T18:54:20.675Z,2.37
2018-05-08T18:56:48.282Z,2.53
2018-05-08T18:59:16.080Z,2.27
2018-05-08T19:01:43.615Z,2.10
2018-05-08T19:04:11.220Z,2.80
2018-05-08T19:06:39.582Z,2.73
2018-05-08T19:09:07.211Z,3.77
2018-05-08T19:11:40.421Z,3.70
2018-05-08T19:14:07.988Z,3.57
2018-05-08T19:16:35.556Z,5.27
2018-05-08T19:19:08.977Z,3.73
2018-05-08T19:21:36.552Z,4.73
2018-05-08T19:24:09.692Z,4.37
2018-05-08T19:26:37.416Z,4.10
2018-05-08T19:29:12.060Z,3.50
2018-05-08T19:31:39.611Z,3.70
2018-05-08T19:34:07.220Z,2.73
2018-05-08T19:36:40.457Z,2.60
2018-05-08T19:39:08.093Z,2.50
2018-05-08T19:41:35.650Z,3.07
2018-05-08T19:44:04.012Z,2.60
2018-05-08T19:46:31.609Z,2.07
2018-05-08T19:48:59.161Z,3.07
2018-05-08T19:51:26.782Z,2.50
2018-05-08T19:53:54.377Z,2.60
2018-05-08T19:56:22.027Z,2.97
2018-05-08T19:58:49.573Z,2.77
2018-05-08T20:01:17.174Z,3.00
2018-05-08T20:03:44.728Z,3.53
2018-05-08T20:06:12.300Z,3.60
2018-05-08T20:08:39.883Z,3.50
2018-05-08T20:11:07.430Z,4.03
2018-05-08T20:13:34.993Z,3.67
2018-05-08T20:16:02.581Z,3.63
2018-05-08T20:18:30.177Z,4.37
2018-05-08T20:20:57.752Z,3.73
2018-05-08T20:23:25.300Z,3.30
2018-05-08T20:25:52.864Z,3.07
2018-05-08T20:28:20.400Z,2.87
2018-05-08T20:30:48.732Z,2.93
2018-05-08T20:33:16.264Z,2.93
2018-05-08T20:35:43.847Z,3.30
2018-05-08T20:38:11.404Z,4.13
2018-05-08T20:40:38.983Z,3.77
2018-05-08T20:43:06.544Z,4.27
2018-05-08T20:45:34.086Z,3.93
2018-05-08T20:48:01.717Z,4.00
2018-05-08T20:50:29.264Z,4.70
2018-05-08T20:52:56.832Z,3.10
2018-05-08T20:55:25.168Z,3.70
2018-05-08T20:57:52.737Z,3.30
2018-05-08T21:00:20.302Z,3.73
2018-05-08T21:02:47.892Z,3.90
2018-05-08T21:05:16.233Z,4.07
2018-05-08T21:07:43.787Z,4.50
2018-05-08T21:10:11.349Z,4.37
2018-05-08T21:12:39.680Z,4.30
2018-05-08T21:15:07.328Z,3.67
2018-05-08T21:17:34.984Z,4.20
2018-05-08T21:20:02.504Z,3.53
2018-05-08T21:22:30.044Z,3.90
2018-05-08T21:24:57.620Z,3.07
2018-05-08T21:27:30.901Z,4.43
2018-05-08T21:30:04.055Z,3.87
2018-05-08T21:32:32.392Z,3.33
2018-05-08T21:34:59.940Z,2.50
2018-05-08T21:37:27.504Z,2.90
2018-05-08T21:39:55.030Z,2.80
2018-05-08T21:42:22.631Z,8.63
2018-05-08T21:44:50.232Z,3.67
2018-05-08T21:47:17.808Z,3.73
2018-05-08T21:49:45.391Z,3.53
2018-05-08T21:52:13.093Z,3.07
2018-05-08T21:54:41.025Z,3.60
2018-05-08T21:57:08.588Z,3.00
2018-05-08T21:59:36.157Z,3.50
2018-05-08T22:02:03.726Z,2.80
2018-05-08T22:04:31.283Z,3.30
2018-05-08T22:06:58.844Z,2.80
2018-05-08T22:09:27.205Z,2.93
2018-05-08T22:11:54.816Z,3.00
2018-05-08T22:14:23.455Z,3.93
2018-05-08T22:16:50.990Z,4.27
2018-05-08T22:19:18.569Z,3.67
2018-05-08T22:21:46.131Z,4.80
2018-05-08T22:24:13.680Z,5.40
2018-05-08T22:26:41.294Z,5.13
2018-05-08T22:29:09.121Z,5.03
2018-05-08T22:31:36.733Z,4.83
2018-05-08T22:34:04.275Z,4.53
2018-05-08T22:36:31.852Z,5.40
2018-05-08T22:39:00.191Z,4.70
2018-05-08T22:41:27.727Z,5.43
2018-05-08T22:43:55.301Z,5.87
2018-05-08T22:46:22.856Z,6.03
2018-05-08T22:48:50.485Z,5.53
2018-05-08T22:51:18.044Z,5.27
2018-05-08T22:53:45.638Z,5.57
2018-05-08T22:56:13.209Z,5.07
2018-05-08T22:58:40.773Z,4.47
2018-05-08T23:01:08.385Z,4.00
2018-05-08T23:03:35.939Z,3.50
2018-05-08T23:06:03.512Z,3.40
2018-05-08T23:08:31.068Z,3.60
2018-05-08T23:10:58.628Z,3.60
2018-05-08T23:13:26.968Z,3.30
2018-05-08T23:15:54.560Z,4.07
2018-05-08T23:18:22.111Z,4.00
2018-05-08T23:20:49.691Z,4.07
2018-05-08T23:23:17.250Z,4.20
2018-05-08T23:25:44.788Z,4.60
2018-05-08T23:28:12.369Z,5.00
2018-05-08T23:30:39.910Z,4.60
2018-05-08T23:33:08.329Z,4.83
2018-05-08T23:35:35.916Z,5.03
2018-05-08T23:38:03.464Z,5.50
2018-05-08T23:40:31.025Z,6.07
2018-05-08T23:42:58.584Z,5.77
2018-05-08T23:45:26.125Z,5.53
2018-05-08T23:47:53.784Z,5.07
2018-05-08T23:50:21.350Z,5.03
2018-05-08T23:52:49.384Z,4.80
2018-05-08T23:55:16.963Z,4.33
2018-05-08T23:57:44.484Z,4.53
